sensor_id;sensor_type;location;lat;lon;timestamp;pressure;altitude;pressure_sealevel;temperature;humidity
40315;BME280;26021;45.640;11.302;2022-12-11T00:01:22;96893.34;;;7.38;100.00
40315;BME280;26021;45.640;11.302;2022-12-11T00:03:47;96922.63;;;7.64;100.00
40315;BME280;26021;45.640;11.302;2022-12-11T00:06:15;96923.25;;;7.59;100.00
40315;BME280;26021;45.640;11.302;2022-12-11T00:08:42;96878.63;;;7.35;100.00
40315;BME280;26021;45.640;11.302;2022-12-11T00:11:08;96863.25;;;7.17;100.00
40315;BME280;26021;45.640;11.302;2022-12-11T00:13:36;96920.19;;;7.69;100.00
40315;BME280;26021;45.640;11.302;2022-12-11T00:16:01;96924.69;;;7.49;100.00
40315;BME280;26021;45.640;11.302;2022-12-11T00:18:26;96924.28;;;7.58;100.00
40315;BME280;26021;45.640;11.302;2022-12-11T00:20:52;96863.06;;;7.32;100.00
40315;BME280;26021;45.640;11.302;2022-12-11T00:23:17;96923.25;;;7.59;100.00
40315;BME280;26021;45.640;11.302;2022-12-11T00:25:44;96802.13;;;6.84;100.00
40315;BME280;26021;45.640;11.302;2022-12-11T00:28:11;96916.50;;;7.44;100.00
40315;BME280;26021;45.640;11.302;2022-12-11T00:30:39;96927.50;;;7.41;100.00
40315;BME280;26021;45.640;11.302;2022-12-11T00:33:05;96930.41;;;7.52;100.00
40315;BME280;26021;45.640;11.302;2022-12-11T00:35:30;96921.19;;;7.55;100.00
40315;BME280;26021;45.640;11.302;2022-12-11T00:37:56;96801.28;;;6.71;100.00
40315;BME280;26021;45.640;11.302;2022-12-11T00:40:21;96923.22;;;7.40;100.00
40315;BME280;26021;45.640;11.302;2022-12-11T00:42:46;96895.38;;;7.29;100.00
40315;BME280;26021;45.640;11.302;2022-12-11T00:45:12;96921.00;;;7.50;100.00
40315;BME280;26021;45.640;11.302;2022-12-11T00:47:37;96920.56;;;7.40;100.00
40315;BME280;26021;45.640;11.302;2022-12-11T00:50:03;96913.22;;;7.48;100.00
40315;BME280;26021;45.640;11.302;2022-12-11T00:52:29;96923.44;;;7.45;100.00
40315;BME280;26021;45.640;11.302;2022-12-11T00:54:54;96915.84;;;7.28;100.00
40315;BME280;26021;45.640;11.302;2022-12-11T00:57:19;96945.91;;;7.42;100.00
40315;BME280;26021;45.640;11.302;2022-12-11T00:59:45;96956.41;;;7.50;100.00
40315;BME280;26021;45.640;11.302;2022-12-11T01:02:10;96930.97;;;7.28;100.00
40315;BME280;26021;45.640;11.302;2022-12-11T01:04:36;96956.81;;;7.47;100.00
40315;BME280;26021;45.640;11.302;2022-12-11T01:07:01;96938.13;;;7.27;100.00
40315;BME280;26021;45.640;11.302;2022-12-11T01:09:27;96899.03;;;7.08;100.00
40315;BME280;26021;45.640;11.302;2022-12-11T01:12:11;96974.59;;;7.47;100.00
40315;BME280;26021;45.640;11.302;2022-12-11T01:14:36;96978.50;;;7.44;100.00
40315;BME280;26021;45.640;11.302;2022-12-11T01:17:02;96893.28;;;6.85;100.00
40315;BME280;26021;45.640;11.302;2022-12-11T01:19:27;96959.78;;;7.18;100.00
40315;BME280;26021;45.640;11.302;2022-12-11T01:21:53;96985.03;;;7.48;100.00
40315;BME280;26021;45.640;11.302;2022-12-11T01:24:18;96995.06;;;7.59;100.00
40315;BME280;26021;45.640;11.302;2022-12-11T01:26:44;96994.47;;;7.57;100.00
40315;BME280;26021;45.640;11.302;2022-12-11T01:29:09;96941.41;;;7.23;100.00
40315;BME280;26021;45.640;11.302;2022-12-11T01:31:35;96955.75;;;7.42;100.00
40315;BME280;26021;45.640;11.302;2022-12-11T01:34:02;96984.84;;;7.50;100.00
40315;BME280;26021;45.640;11.302;2022-12-11T01:36:27;96978.28;;;7.46;100.00
40315;BME280;26021;45.640;11.302;2022-12-11T01:38:53;96915.97;;;6.87;100.00
40315;BME280;26021;45.640;11.302;2022-12-11T01:41:19;96912.28;;;6.82;100.00
40315;BME280;26021;45.640;11.302;2022-12-11T01:45:13;96979.66;;;7.28;100.00
40315;BME280;26021;45.640;11.302;2022-12-11T01:46:53;96968.06;;;7.49;100.00
40315;BME280;26021;45.640;11.302;2022-12-11T01:49:20;96925.84;;;7.26;100.00
40315;BME280;26021;45.640;11.302;2022-12-11T01:51:52;96976.47;;;7.59;100.00
40315;BME280;26021;45.640;11.302;2022-12-11T01:54:21;96974.56;;;7.40;100.00
40315;BME280;26021;45.640;11.302;2022-12-11T01:56:51;96973.94;;;7.25;100.00
40315;BME280;26021;45.640;11.302;2022-12-11T01:59:20;96978.84;;;7.41;100.00
40315;BME280;26021;45.640;11.302;2022-12-11T02:04:18;96982.91;;;7.17;100.00
40315;BME280;26021;45.640;11.302;2022-12-11T02:06:47;96920.66;;;6.79;100.00
40315;BME280;26021;45.640;11.302;2022-12-11T02:09:16;96925.41;;;6.96;100.00
40315;BME280;26021;45.640;11.302;2022-12-11T02:16:55;96989.13;;;7.44;100.00
40315;BME280;26021;45.640;11.302;2022-12-11T02:22:08;96960.59;;;7.05;100.00
40315;BME280;26021;45.640;11.302;2022-12-11T02:24:42;96980.66;;;7.21;100.00
40315;BME280;26021;45.640;11.302;2022-12-11T02:32:34;96985.00;;;7.42;100.00
40315;BME280;26021;45.640;11.302;2022-12-11T02:35:38;96975.41;;;7.47;100.00
40315;BME280;26021;45.640;11.302;2022-12-11T02:38:02;96888.78;;;6.85;100.00
40315;BME280;26021;45.640;11.302;2022-12-11T02:40:31;96960.44;;;7.26;100.00
40315;BME280;26021;45.640;11.302;2022-12-11T02:43:03;96975.78;;;7.31;100.00
40315;BME280;26021;45.640;11.302;2022-12-11T02:45:31;96977.84;;;7.42;100.00
40315;BME280;26021;45.640;11.302;2022-12-11T02:48:00;96971.06;;;7.33;100.00
40315;BME280;26021;45.640;11.302;2022-12-11T02:50:27;96969.59;;;7.11;100.00
40315;BME280;26021;45.640;11.302;2022-12-11T02:52:55;96977.81;;;7.29;100.00
40315;BME280;26021;45.640;11.302;2022-12-11T02:55:22;96979.41;;;7.10;100.00
40315;BME280;26021;45.640;11.302;2022-12-11T02:57:54;96917.38;;;6.83;100.00
40315;BME280;26021;45.640;11.302;2022-12-11T03:00:21;96976.78;;;7.30;100.00
40315;BME280;26021;45.640;11.302;2022-12-11T03:02:46;96977.81;;;7.22;100.00
40315;BME280;26021;45.640;11.302;2022-12-11T03:05:13;96980.84;;;7.06;100.00
40315;BME280;26021;45.640;11.302;2022-12-11T03:07:41;96976.59;;;7.25;100.00
40315;BME280;26021;45.640;11.302;2022-12-11T03:10:09;96982.69;;;7.19;100.00
40315;BME280;26021;45.640;11.302;2022-12-11T03:12:38;96956.44;;;6.89;100.00
40315;BME280;26021;45.640;11.302;2022-12-11T03:15:07;96974.72;;;7.12;100.00
40315;BME280;26021;45.640;11.302;2022-12-11T03:18:03;96978.00;;;7.21;100.00
40315;BME280;26021;45.640;11.302;2022-12-11T03:25:53;96967.28;;;6.88;100.00
40315;BME280;26021;45.640;11.302;2022-12-11T03:31:11;96916.81;;;6.40;100.00
40315;BME280;26021;45.640;11.302;2022-12-11T03:33:42;97003.03;;;6.85;100.00
40315;BME280;26021;45.640;11.302;2022-12-11T03:36:16;96902.31;;;6.01;100.00
40315;BME280;26021;45.640;11.302;2022-12-11T03:38:47;96957.31;;;6.55;100.00
40315;BME280;26021;45.640;11.302;2022-12-11T03:41:17;96960.28;;;6.32;100.00
40315;BME280;26021;45.640;11.302;2022-12-11T03:43:43;97032.53;;;6.62;100.00
40315;BME280;26021;45.640;11.302;2022-12-11T03:46:11;97009.06;;;6.31;100.00
40315;BME280;26021;45.640;11.302;2022-12-11T03:48:39;97047.66;;;6.62;100.00
40315;BME280;26021;45.640;11.302;2022-12-11T03:51:07;97055.91;;;6.39;100.00
40315;BME280;26021;45.640;11.302;2022-12-11T03:53:34;97004.47;;;6.12;100.00
40315;BME280;26021;45.640;11.302;2022-12-11T03:56:03;97056.16;;;6.51;100.00
40315;BME280;26021;45.640;11.302;2022-12-11T03:58:30;97050.94;;;6.64;100.00
40315;BME280;26021;45.640;11.302;2022-12-11T04:00:56;97060.91;;;6.55;100.00
40315;BME280;26021;45.640;11.302;2022-12-11T04:03:21;97068.31;;;6.32;100.00
40315;BME280;26021;45.640;11.302;2022-12-11T04:05:52;96976.78;;;5.51;100.00
40315;BME280;26021;45.640;11.302;2022-12-11T04:08:19;97070.81;;;5.91;100.00
40315;BME280;26021;45.640;11.302;2022-12-11T04:10:45;97002.47;;;5.29;100.00
40315;BME280;26021;45.640;11.302;2022-12-11T04:13:11;97020.31;;;5.20;100.00
40315;BME280;26021;45.640;11.302;2022-12-11T04:15:37;97083.41;;;5.67;100.00
40315;BME280;26021;45.640;11.302;2022-12-11T04:18:04;97077.59;;;5.79;100.00
40315;BME280;26021;45.640;11.302;2022-12-11T04:21:04;97067.94;;;5.50;100.00
40315;BME280;26021;45.640;11.302;2022-12-11T04:23:49;97064.78;;;5.39;100.00
40315;BME280;26021;45.640;11.302;2022-12-11T04:26:33;97018.06;;;5.02;100.00
40315;BME280;26021;45.640;11.302;2022-12-11T04:28:58;97067.50;;;5.46;100.00
40315;BME280;26021;45.640;11.302;2022-12-11T04:31:24;97073.69;;;5.53;100.00
40315;BME280;26021;45.640;11.302;2022-12-11T04:33:49;97070.41;;;5.51;100.00
40315;BME280;26021;45.640;11.302;2022-12-11T04:36:15;97070.34;;;5.66;100.00
40315;BME280;26021;45.640;11.302;2022-12-11T04:38:41;97068.69;;;5.65;100.00
40315;BME280;26021;45.640;11.302;2022-12-11T04:41:09;96871.81;;;4.50;100.00
40315;BME280;26021;45.640;11.302;2022-12-11T04:43:35;97062.50;;;5.36;100.00
40315;BME280;26021;45.640;11.302;2022-12-11T04:46:12;97047.91;;;5.26;100.00
40315;BME280;26021;45.640;11.302;2022-12-11T04:48:39;97053.91;;;5.34;100.00
40315;BME280;26021;45.640;11.302;2022-12-11T04:51:06;96989.59;;;4.90;100.00
40315;BME280;26021;45.640;11.302;2022-12-11T04:53:32;97049.34;;;5.28;100.00
40315;BME280;26021;45.640;11.302;2022-12-11T04:55:58;97046.22;;;5.39;100.00
40315;BME280;26021;45.640;11.302;2022-12-11T04:58:24;97048.50;;;5.64;100.00
40315;BME280;26021;45.640;11.302;2022-12-11T05:00:50;96998.50;;;5.39;100.00
40315;BME280;26021;45.640;11.302;2022-12-11T05:03:16;97036.75;;;5.52;100.00
40315;BME280;26021;45.640;11.302;2022-12-11T05:05:50;97061.94;;;5.84;100.00
40315;BME280;26021;45.640;11.302;2022-12-11T05:08:17;96989.28;;;5.35;100.00
40315;BME280;26021;45.640;11.302;2022-12-11T05:10:42;97045.53;;;5.52;100.00
40315;BME280;26021;45.640;11.302;2022-12-11T05:13:08;97028.09;;;5.43;100.00
40315;BME280;26021;45.640;11.302;2022-12-11T05:15:33;97065.41;;;5.63;100.00
40315;BME280;26021;45.640;11.302;2022-12-11T05:17:58;97037.13;;;5.49;100.00
40315;BME280;26021;45.640;11.302;2022-12-11T05:20:24;97060.03;;;5.56;100.00
40315;BME280;26021;45.640;11.302;2022-12-11T05:22:49;97059.28;;;5.62;100.00
40315;BME280;26021;45.640;11.302;2022-12-11T05:25:15;97056.13;;;5.52;100.00
40315;BME280;26021;45.640;11.302;2022-12-11T05:27:40;97047.78;;;5.55;100.00
40315;BME280;26021;45.640;11.302;2022-12-11T05:30:06;97049.75;;;5.47;100.00
40315;BME280;26021;45.640;11.302;2022-12-11T05:32:32;97060.72;;;5.22;100.00
40315;BME280;26021;45.640;11.302;2022-12-11T05:34:57;97062.44;;;5.15;100.00
40315;BME280;26021;45.640;11.302;2022-12-11T05:37:23;97069.59;;;5.00;100.00
40315;BME280;26021;45.640;11.302;2022-12-11T05:39:48;97070.56;;;5.14;100.00
40315;BME280;26021;45.640;11.302;2022-12-11T05:42:13;97045.19;;;5.04;100.00
40315;BME280;26021;45.640;11.302;2022-12-11T05:44:39;97040.81;;;4.97;100.00
40315;BME280;26021;45.640;11.302;2022-12-11T05:47:04;97067.38;;;5.03;100.00
40315;BME280;26021;45.640;11.302;2022-12-11T05:49:30;97062.66;;;4.99;100.00
40315;BME280;26021;45.640;11.302;2022-12-11T05:51:55;96997.13;;;4.57;100.00
40315;BME280;26021;45.640;11.302;2022-12-11T05:54:20;97063.53;;;5.06;100.00
40315;BME280;26021;45.640;11.302;2022-12-11T05:56:48;97072.69;;;5.03;100.00
40315;BME280;26021;45.640;11.302;2022-12-11T05:59:15;97019.78;;;4.59;100.00
40315;BME280;26021;45.640;11.302;2022-12-11T06:01:42;97083.31;;;4.89;100.00
40315;BME280;26021;45.640;11.302;2022-12-11T06:04:09;97082.66;;;4.87;100.00
40315;BME280;26021;45.640;11.302;2022-12-11T06:06:38;97074.25;;;4.83;100.00
40315;BME280;26021;45.640;11.302;2022-12-11T06:09:05;96889.69;;;3.59;100.00
40315;BME280;26021;45.640;11.302;2022-12-11T06:11:32;97079.03;;;4.73;100.00
40315;BME280;26021;45.640;11.302;2022-12-11T06:14:00;97074.19;;;4.76;100.00
40315;BME280;26021;45.640;11.302;2022-12-11T06:16:26;97072.88;;;4.87;100.00
40315;BME280;26021;45.640;11.302;2022-12-11T06:18:52;97080.28;;;4.77;100.00
40315;BME280;26021;45.640;11.302;2022-12-11T06:21:23;97078.66;;;4.76;100.00
40315;BME280;26021;45.640;11.302;2022-12-11T06:23:50;97084.03;;;4.68;100.00
40315;BME280;26021;45.640;11.302;2022-12-11T06:26:17;97089.06;;;4.77;100.00
40315;BME280;26021;45.640;11.302;2022-12-11T06:28:43;97004.88;;;4.14;100.00
40315;BME280;26021;45.640;11.302;2022-12-11T06:31:09;97083.03;;;4.54;100.00
40315;BME280;26021;45.640;11.302;2022-12-11T06:33:35;97084.63;;;4.40;100.00
40315;BME280;26021;45.640;11.302;2022-12-11T06:36:02;97058.97;;;4.11;100.00
40315;BME280;26021;45.640;11.302;2022-12-11T06:38:28;97085.66;;;4.39;100.00
40315;BME280;26021;45.640;11.302;2022-12-11T06:40:57;97086.09;;;4.28;100.00
40315;BME280;26021;45.640;11.302;2022-12-11T06:43:23;97021.94;;;3.74;100.00
40315;BME280;26021;45.640;11.302;2022-12-11T06:45:49;97098.66;;;4.11;100.00
40315;BME280;26021;45.640;11.302;2022-12-11T06:48:15;97085.63;;;3.87;100.00
40315;BME280;26021;45.640;11.302;2022-12-11T06:50:41;97110.13;;;3.81;100.00
40315;BME280;26021;45.640;11.302;2022-12-11T06:53:06;97113.03;;;3.63;100.00
40315;BME280;26021;45.640;11.302;2022-12-11T06:55:35;97039.72;;;2.72;100.00
40315;BME280;26021;45.640;11.302;2022-12-11T06:58:01;97056.06;;;2.68;100.00
40315;BME280;26021;45.640;11.302;2022-12-11T07:00:26;97104.34;;;2.84;100.00
40315;BME280;26021;45.640;11.302;2022-12-11T07:02:52;97098.25;;;2.84;100.00
40315;BME280;26021;45.640;11.302;2022-12-11T07:05:18;97105.69;;;2.80;100.00
40315;BME280;26021;45.640;11.302;2022-12-11T07:07:43;97109.19;;;2.73;100.00
40315;BME280;26021;45.640;11.302;2022-12-11T07:10:09;97110.00;;;2.73;100.00
40315;BME280;26021;45.640;11.302;2022-12-11T07:12:35;97128.81;;;2.70;100.00
40315;BME280;26021;45.640;11.302;2022-12-11T07:15:01;96997.06;;;1.97;100.00
40315;BME280;26021;45.640;11.302;2022-12-11T07:17:28;97117.25;;;2.79;100.00
40315;BME280;26021;45.640;11.302;2022-12-11T07:19:53;97095.22;;;2.56;100.00
40315;BME280;26021;45.640;11.302;2022-12-11T07:22:19;97016.00;;;2.09;100.00
40315;BME280;26021;45.640;11.302;2022-12-11T07:24:44;97029.34;;;2.23;100.00
40315;BME280;26021;45.640;11.302;2022-12-11T07:27:10;97066.22;;;2.48;100.00
40315;BME280;26021;45.640;11.302;2022-12-11T07:29:35;97107.56;;;2.64;100.00
40315;BME280;26021;45.640;11.302;2022-12-11T07:32:01;97130.94;;;2.83;100.00
40315;BME280;26021;45.640;11.302;2022-12-11T07:34:26;97136.53;;;2.80;100.00
40315;BME280;26021;45.640;11.302;2022-12-11T07:36:51;97117.56;;;2.84;100.00
40315;BME280;26021;45.640;11.302;2022-12-11T07:39:17;97124.41;;;3.10;100.00
40315;BME280;26021;45.640;11.302;2022-12-11T07:41:42;97067.22;;;2.86;100.00
40315;BME280;26021;45.640;11.302;2022-12-11T07:44:08;97115.09;;;3.22;100.00
40315;BME280;26021;45.640;11.302;2022-12-11T07:46:34;97065.75;;;2.83;100.00
40315;BME280;26021;45.640;11.302;2022-12-11T07:49:00;97111.38;;;3.08;100.00
40315;BME280;26021;45.640;11.302;2022-12-11T07:51:28;97129.34;;;3.13;100.00
40315;BME280;26021;45.640;11.302;2022-12-11T07:54:00;97130.66;;;3.17;100.00
40315;BME280;26021;45.640;11.302;2022-12-11T07:56:27;97125.97;;;3.27;100.00
40315;BME280;26021;45.640;11.302;2022-12-11T07:58:53;97130.69;;;3.40;100.00
40315;BME280;26021;45.640;11.302;2022-12-11T08:01:26;97135.00;;;3.41;100.00
40315;BME280;26021;45.640;11.302;2022-12-11T08:03:52;97117.00;;;3.36;100.00
40315;BME280;26021;45.640;11.302;2022-12-11T08:06:19;97140.19;;;3.57;100.00
40315;BME280;26021;45.640;11.302;2022-12-11T08:08:48;97124.72;;;3.46;100.00
40315;BME280;26021;45.640;11.302;2022-12-11T08:11:14;97139.66;;;3.62;100.00
40315;BME280;26021;45.640;11.302;2022-12-11T08:13:41;97133.03;;;3.66;100.00
40315;BME280;26021;45.640;11.302;2022-12-11T08:16:10;97150.53;;;3.67;100.00
40315;BME280;26021;45.640;11.302;2022-12-11T08:18:38;97145.81;;;3.85;100.00
40315;BME280;26021;45.640;11.302;2022-12-11T08:21:30;97148.28;;;3.87;100.00
40315;BME280;26021;45.640;11.302;2022-12-11T08:23:55;97150.41;;;3.91;100.00
40315;BME280;26021;45.640;11.302;2022-12-11T08:26:26;97097.75;;;3.50;100.00
40315;BME280;26021;45.640;11.302;2022-12-11T08:28:52;97154.63;;;4.00;100.00
40315;BME280;26021;45.640;11.302;2022-12-11T08:31:18;97157.69;;;3.89;100.00
40315;BME280;26021;45.640;11.302;2022-12-11T08:33:45;97080.63;;;3.46;100.00
40315;BME280;26021;45.640;11.302;2022-12-11T08:36:13;97161.44;;;3.95;100.00
40315;BME280;26021;45.640;11.302;2022-12-11T08:38:39;97170.72;;;4.13;100.00
40315;BME280;26021;45.640;11.302;2022-12-11T08:43:34;97124.53;;;3.78;100.00
40315;BME280;26021;45.640;11.302;2022-12-11T08:45:59;97165.56;;;3.97;100.00
40315;BME280;26021;45.640;11.302;2022-12-11T08:48:25;97175.31;;;4.20;100.00
40315;BME280;26021;45.640;11.302;2022-12-11T08:50:50;97182.97;;;4.14;100.00
40315;BME280;26021;45.640;11.302;2022-12-11T08:53:16;97183.06;;;3.98;100.00
40315;BME280;26021;45.640;11.302;2022-12-11T08:55:41;97197.81;;;3.93;100.00
40315;BME280;26021;45.640;11.302;2022-12-11T08:58:06;97159.56;;;3.80;100.00
40315;BME280;26021;45.640;11.302;2022-12-11T09:00:32;97198.19;;;4.12;100.00
40315;BME280;26021;45.640;11.302;2022-12-11T09:02:57;97126.06;;;3.73;100.00
40315;BME280;26021;45.640;11.302;2022-12-11T09:05:23;97178.13;;;3.95;100.00
40315;BME280;26021;45.640;11.302;2022-12-11T09:07:48;97184.97;;;4.12;100.00
40315;BME280;26021;45.640;11.302;2022-12-11T09:10:13;97172.63;;;4.05;100.00
40315;BME280;26021;45.640;11.302;2022-12-11T09:12:39;97198.84;;;4.14;100.00
40315;BME280;26021;45.640;11.302;2022-12-11T09:15:05;97196.94;;;4.00;100.00
40315;BME280;26021;45.640;11.302;2022-12-11T09:17:33;97209.41;;;4.37;100.00
40315;BME280;26021;45.640;11.302;2022-12-11T09:19:59;97207.03;;;4.42;100.00
40315;BME280;26021;45.640;11.302;2022-12-11T09:22:25;97212.06;;;4.60;100.00
40315;BME280;26021;45.640;11.302;2022-12-11T09:24:50;97186.59;;;4.36;100.00
40315;BME280;26021;45.640;11.302;2022-12-11T09:27:15;97168.97;;;4.06;100.00
40315;BME280;26021;45.640;11.302;2022-12-11T09:29:41;97220.09;;;4.44;100.00
40315;BME280;26021;45.640;11.302;2022-12-11T09:32:06;97226.91;;;4.46;100.00
40315;BME280;26021;45.640;11.302;2022-12-11T09:34:32;97230.69;;;4.44;100.00
40315;BME280;26021;45.640;11.302;2022-12-11T09:36:57;97230.69;;;4.44;100.00
40315;BME280;26021;45.640;11.302;2022-12-11T09:39:23;97186.78;;;4.12;100.00
40315;BME280;26021;45.640;11.302;2022-12-11T09:42:14;97241.28;;;4.44;100.00
40315;BME280;26021;45.640;11.302;2022-12-11T09:45:00;97177.44;;;3.78;100.00
40315;BME280;26021;45.640;11.302;2022-12-11T09:47:51;97157.75;;;3.81;100.00
40315;BME280;26021;45.640;11.302;2022-12-11T09:50:22;97241.09;;;4.23;100.00
40315;BME280;26021;45.640;11.302;2022-12-11T09:53:13;97237.00;;;4.20;100.00
40315;BME280;26021;45.640;11.302;2022-12-11T09:55:54;97229.63;;;4.30;100.00
40315;BME280;26021;45.640;11.302;2022-12-11T10:01:16;97229.75;;;4.37;100.00
40315;BME280;26021;45.640;11.302;2022-12-11T10:12:23;97251.41;;;4.40;100.00
40315;BME280;26021;45.640;11.302;2022-12-11T10:17:36;97253.78;;;4.58;100.00
40315;BME280;26021;45.640;11.302;2022-12-11T10:20:23;97247.25;;;4.46;100.00
40315;BME280;26021;45.640;11.302;2022-12-11T10:22:51;97090.59;;;3.36;100.00
40315;BME280;26021;45.640;11.302;2022-12-11T10:27:45;97236.47;;;4.25;100.00
40315;BME280;26021;45.640;11.302;2022-12-11T10:30:22;97244.50;;;4.08;100.00
40315;BME280;26021;45.640;11.302;2022-12-11T10:35:42;97200.69;;;3.83;100.00
40315;BME280;26021;45.640;11.302;2022-12-11T10:38:11;97253.03;;;4.19;100.00
40315;BME280;26021;45.640;11.302;2022-12-11T10:40:40;97240.75;;;4.26;100.00
40315;BME280;26021;45.640;11.302;2022-12-11T10:43:07;97210.41;;;4.13;100.00
40315;BME280;26021;45.640;11.302;2022-12-11T10:45:32;97186.72;;;3.97;100.00
40315;BME280;26021;45.640;11.302;2022-12-11T10:48:13;97228.47;;;4.33;100.00
40315;BME280;26021;45.640;11.302;2022-12-11T10:50:38;97212.53;;;4.18;100.00
40315;BME280;26021;45.640;11.302;2022-12-11T10:53:04;97225.94;;;4.39;100.00
40315;BME280;26021;45.640;11.302;2022-12-11T10:55:43;97228.94;;;4.36;100.00
40315;BME280;26021;45.640;11.302;2022-12-11T10:58:17;97225.53;;;4.28;100.00
40315;BME280;26021;45.640;11.302;2022-12-11T11:00:43;97232.94;;;4.32;100.00
40315;BME280;26021;45.640;11.302;2022-12-11T11:03:22;97219.78;;;4.47;100.00
40315;BME280;26021;45.640;11.302;2022-12-11T11:05:48;97234.41;;;4.58;100.00
40315;BME280;26021;45.640;11.302;2022-12-11T11:08:19;97241.66;;;4.64;100.00
40315;BME280;26021;45.640;11.302;2022-12-11T11:11:03;97233.00;;;4.47;100.00
40315;BME280;26021;45.640;11.302;2022-12-11T11:13:30;97234.16;;;4.44;100.00
40315;BME280;26021;45.640;11.302;2022-12-11T11:16:02;97175.09;;;4.06;100.00
40315;BME280;26021;45.640;11.302;2022-12-11T11:18:29;97190.53;;;4.18;100.00
40315;BME280;26021;45.640;11.302;2022-12-11T11:20:57;97225.72;;;4.49;100.00
40315;BME280;26021;45.640;11.302;2022-12-11T11:23:23;97228.00;;;4.52;100.00
40315;BME280;26021;45.640;11.302;2022-12-11T11:26:00;97198.41;;;4.26;100.00
40315;BME280;26021;45.640;11.302;2022-12-11T11:28:53;97203.94;;;4.39;100.00
40315;BME280;26021;45.640;11.302;2022-12-11T11:31:21;97212.66;;;4.47;100.00
40315;BME280;26021;45.640;11.302;2022-12-11T11:34:04;97227.53;;;4.49;100.00
40315;BME280;26021;45.640;11.302;2022-12-11T11:36:34;97184.19;;;4.27;100.00
40315;BME280;26021;45.640;11.302;2022-12-11T11:39:18;97227.22;;;4.43;100.00
40315;BME280;26021;45.640;11.302;2022-12-11T11:44:49;97232.44;;;4.74;100.00
40315;BME280;26021;45.640;11.302;2022-12-11T11:47:26;97152.09;;;4.44;100.00
40315;BME280;26021;45.640;11.302;2022-12-11T11:50:20;97238.97;;;5.01;100.00
40315;BME280;26021;45.640;11.302;2022-12-11T11:53:15;97112.38;;;4.30;100.00
40315;BME280;26021;45.640;11.302;2022-12-11T11:55:57;97230.75;;;4.96;100.00
40315;BME280;26021;45.640;11.302;2022-12-11T12:01:30;97186.59;;;4.74;100.00
40315;BME280;26021;45.640;11.302;2022-12-11T12:03:56;97213.94;;;5.04;100.00
40315;BME280;26021;45.640;11.302;2022-12-11T12:06:27;97236.63;;;5.21;100.00
40315;BME280;26021;45.640;11.302;2022-12-11T12:14:37;97241.00;;;5.14;100.00
40315;BME280;26021;45.640;11.302;2022-12-11T12:17:27;97258.91;;;5.12;100.00
40315;BME280;26021;45.640;11.302;2022-12-11T12:25:53;97207.09;;;4.95;100.00
40315;BME280;26021;45.640;11.302;2022-12-11T12:37:24;97273.34;;;5.09;96.13
40315;BME280;26021;45.640;11.302;2022-12-11T12:45:53;97106.19;;;3.77;100.00
40315;BME280;26021;45.640;11.302;2022-12-11T12:48:23;97068.34;;;3.54;100.00
40315;BME280;26021;45.640;11.302;2022-12-11T12:50:51;97276.00;;;4.72;100.00
40315;BME280;26021;45.640;11.302;2022-12-11T12:53:20;97295.47;;;4.79;100.00
40315;BME280;26021;45.640;11.302;2022-12-11T12:55:48;97279.13;;;4.53;100.00
40315;BME280;26021;45.640;11.302;2022-12-11T12:58:38;97293.91;;;4.47;100.00
40315;BME280;26021;45.640;11.302;2022-12-11T13:01:24;97291.56;;;4.44;100.00
40315;BME280;26021;45.640;11.302;2022-12-11T13:06:36;97300.28;;;4.30;100.00
40315;BME280;26021;45.640;11.302;2022-12-11T13:09:16;97311.47;;;4.09;100.00
40315;BME280;26021;45.640;11.302;2022-12-11T13:11:42;97263.34;;;3.35;100.00
40315;BME280;26021;45.640;11.302;2022-12-11T13:14:31;97317.28;;;3.57;100.00
40315;BME280;26021;45.640;11.302;2022-12-11T13:19:33;97327.72;;;3.50;100.00
40315;BME280;26021;45.640;11.302;2022-12-11T13:24:32;97320.50;;;3.28;100.00
40315;BME280;26021;45.640;11.302;2022-12-11T13:27:22;97332.09;;;3.03;100.00
40315;BME280;26021;45.640;11.302;2022-12-11T13:29:48;97315.09;;;2.89;100.00
40315;BME280;26021;45.640;11.302;2022-12-11T13:34:49;97305.34;;;2.81;100.00
40315;BME280;26021;45.640;11.302;2022-12-11T13:39:54;97350.25;;;3.14;100.00
40315;BME280;26021;45.640;11.302;2022-12-11T13:42:35;97355.03;;;2.94;100.00
40315;BME280;26021;45.640;11.302;2022-12-11T13:45:03;97361.13;;;2.86;100.00
40315;BME280;26021;45.640;11.302;2022-12-11T13:47:30;97362.94;;;2.62;100.00
40315;BME280;26021;45.640;11.302;2022-12-11T13:50:17;97361.63;;;2.66;100.00
40315;BME280;26021;45.640;11.302;2022-12-11T13:52:54;97348.25;;;2.59;100.00
40315;BME280;26021;45.640;11.302;2022-12-11T13:55:29;97364.75;;;2.61;100.00
40315;BME280;26021;45.640;11.302;2022-12-11T13:57:55;97360.47;;;2.60;100.00
40315;BME280;26021;45.640;11.302;2022-12-11T14:00:23;97360.78;;;2.49;100.00
40315;BME280;26021;45.640;11.302;2022-12-11T14:02:51;97315.06;;;2.32;100.00
40315;BME280;26021;45.640;11.302;2022-12-11T14:05:18;97358.31;;;2.72;100.00
40315;BME280;26021;45.640;11.302;2022-12-11T14:07:58;97359.97;;;2.81;100.00
40315;BME280;26021;45.640;11.302;2022-12-11T14:10:30;97358.03;;;3.07;100.00
40315;BME280;26021;45.640;11.302;2022-12-11T14:13:06;97360.16;;;3.20;100.00
40315;BME280;26021;45.640;11.302;2022-12-11T14:15:42;97312.28;;;2.74;100.00
40315;BME280;26021;45.640;11.302;2022-12-11T14:18:14;97354.41;;;3.00;100.00
40315;BME280;26021;45.640;11.302;2022-12-11T14:20:42;97362.16;;;3.02;100.00
40315;BME280;26021;45.640;11.302;2022-12-11T14:23:20;97374.38;;;3.11;100.00
40315;BME280;26021;45.640;11.302;2022-12-11T14:26:00;97371.22;;;3.15;100.00
40315;BME280;26021;45.640;11.302;2022-12-11T14:28:28;97350.75;;;3.01;100.00
40315;BME280;26021;45.640;11.302;2022-12-11T14:31:00;97355.19;;;3.25;100.00
40315;BME280;26021;45.640;11.302;2022-12-11T14:33:35;97329.63;;;2.85;100.00